sensor_id;sensor_type;location;lat;lon;timestamp;P1;durP1;ratioP1;P2;durP2;ratioP2
34098;SDS011;20374;49.474;10.944;2023-10-19T00:00:39;6.20;;;5.32;;
34098;SDS011;20374;49.474;10.944;2023-10-19T00:03:18;9.13;;;7.63;;
34098;SDS011;20374;49.474;10.944;2023-10-19T00:05:45;7.85;;;6.68;;
34098;SDS011;20374;49.474;10.944;2023-10-19T00:08:12;9.20;;;7.22;;
34098;SDS011;20374;49.474;10.944;2023-10-19T00:10:39;8.93;;;7.65;;
34098;SDS011;20374;49.474;10.944;2023-10-19T00:13:08;6.97;;;5.05;;
34098;SDS011;20374;49.474;10.944;2023-10-19T00:15:40;7.80;;;7.17;;
34098;SDS011;20374;49.474;10.944;2023-10-19T00:18:14;9.32;;;5.78;;
34098;SDS011;20374;49.474;10.944;2023-10-19T00:20:44;7.60;;;6.80;;
34098;SDS011;20374;49.474;10.944;2023-10-19T00:23:14;7.45;;;6.68;;
34098;SDS011;20374;49.474;10.944;2023-10-19T00:25:44;8.55;;;6.50;;
34098;SDS011;20374;49.474;10.944;2023-10-19T00:28:19;10.27;;;7.57;;
34098;SDS011;20374;49.474;10.944;2023-10-19T00:30:45;9.10;;;7.35;;
34098;SDS011;20374;49.474;10.944;2023-10-19T00:33:15;10.77;;;6.45;;
34098;SDS011;20374;49.474;10.944;2023-10-19T00:35:43;11.43;;;8.05;;
34098;SDS011;20374;49.474;10.944;2023-10-19T00:38:13;9.27;;;7.30;;
34098;SDS011;20374;49.474;10.944;2023-10-19T00:40:57;7.73;;;7.10;;
34098;SDS011;20374;49.474;10.944;2023-10-19T00:43:33;9.70;;;6.82;;
34098;SDS011;20374;49.474;10.944;2023-10-19T00:46:17;9.50;;;7.85;;
34098;SDS011;20374;49.474;10.944;2023-10-19T00:48:45;7.90;;;7.10;;
34098;SDS011;20374;49.474;10.944;2023-10-19T00:51:14;8.38;;;7.05;;
34098;SDS011;20374;49.474;10.944;2023-10-19T00:54:04;10.37;;;8.00;;
34098;SDS011;20374;49.474;10.944;2023-10-19T00:56:41;10.77;;;8.57;;
34098;SDS011;20374;49.474;10.944;2023-10-19T00:59:18;9.43;;;8.43;;
34098;SDS011;20374;49.474;10.944;2023-10-19T01:01:55;9.52;;;8.55;;
34098;SDS011;20374;49.474;10.944;2023-10-19T01:04:40;7.97;;;7.10;;
34098;SDS011;20374;49.474;10.944;2023-10-19T01:07:11;7.00;;;6.40;;
34098;SDS011;20374;49.474;10.944;2023-10-19T01:09:43;9.73;;;8.68;;
34098;SDS011;20374;49.474;10.944;2023-10-19T01:12:09;9.35;;;7.85;;
34098;SDS011;20374;49.474;10.944;2023-10-19T01:15:01;8.27;;;7.55;;
34098;SDS011;20374;49.474;10.944;2023-10-19T01:17:33;9.43;;;7.80;;
34098;SDS011;20374;49.474;10.944;2023-10-19T01:20:06;9.57;;;8.20;;
34098;SDS011;20374;49.474;10.944;2023-10-19T01:22:48;8.40;;;7.57;;
34098;SDS011;20374;49.474;10.944;2023-10-19T01:25:19;8.75;;;7.47;;
34098;SDS011;20374;49.474;10.944;2023-10-19T01:27:59;8.60;;;6.78;;
34098;SDS011;20374;49.474;10.944;2023-10-19T01:30:31;10.23;;;7.07;;
34098;SDS011;20374;49.474;10.944;2023-10-19T01:32:58;8.73;;;7.83;;
34098;SDS011;20374;49.474;10.944;2023-10-19T01:35:24;10.07;;;8.70;;
34098;SDS011;20374;49.474;10.944;2023-10-19T01:37:52;9.30;;;7.28;;
34098;SDS011;20374;49.474;10.944;2023-10-19T01:40:18;9.90;;;8.98;;
34098;SDS011;20374;49.474;10.944;2023-10-19T01:42:47;8.48;;;7.05;;
34098;SDS011;20374;49.474;10.944;2023-10-19T01:45:13;8.17;;;7.37;;
34098;SDS011;20374;49.474;10.944;2023-10-19T01:47:39;7.55;;;6.88;;
34098;SDS011;20374;49.474;10.944;2023-10-19T01:50:06;8.93;;;7.57;;
34098;SDS011;20374;49.474;10.944;2023-10-19T01:52:39;8.50;;;7.57;;
34098;SDS011;20374;49.474;10.944;2023-10-19T01:55:05;13.70;;;9.02;;
34098;SDS011;20374;49.474;10.944;2023-10-19T01:57:34;8.10;;;7.23;;
34098;SDS011;20374;49.474;10.944;2023-10-19T02:00:00;8.90;;;7.68;;
34098;SDS011;20374;49.474;10.944;2023-10-19T02:02:37;9.73;;;7.78;;
34098;SDS011;20374;49.474;10.944;2023-10-19T02:05:03;10.20;;;8.75;;
34098;SDS011;20374;49.474;10.944;2023-10-19T02:07:34;9.05;;;8.20;;
34098;SDS011;20374;49.474;10.944;2023-10-19T02:10:00;9.03;;;8.17;;
34098;SDS011;20374;49.474;10.944;2023-10-19T02:12:27;10.43;;;8.52;;
34098;SDS011;20374;49.474;10.944;2023-10-19T02:14:54;10.23;;;8.68;;
34098;SDS011;20374;49.474;10.944;2023-10-19T02:17:21;10.55;;;9.55;;
34098;SDS011;20374;49.474;10.944;2023-10-19T02:19:49;10.75;;;8.50;;
34098;SDS011;20374;49.474;10.944;2023-10-19T02:22:15;9.07;;;8.20;;
34098;SDS011;20374;49.474;10.944;2023-10-19T02:24:42;9.52;;;7.75;;
34098;SDS011;20374;49.474;10.944;2023-10-19T02:27:08;8.73;;;7.88;;
34098;SDS011;20374;49.474;10.944;2023-10-19T02:29:34;10.43;;;7.80;;
34098;SDS011;20374;49.474;10.944;2023-10-19T02:32:01;14.68;;;6.78;;
34098;SDS011;20374;49.474;10.944;2023-10-19T02:34:29;10.00;;;9.00;;
34098;SDS011;20374;49.474;10.944;2023-10-19T02:36:57;8.48;;;7.10;;
34098;SDS011;20374;49.474;10.944;2023-10-19T02:39:23;9.68;;;8.80;;
34098;SDS011;20374;49.474;10.944;2023-10-19T02:41:54;10.68;;;8.43;;
34098;SDS011;20374;49.474;10.944;2023-10-19T02:44:21;10.43;;;9.43;;
34098;SDS011;20374;49.474;10.944;2023-10-19T02:46:57;8.73;;;7.50;;
34098;SDS011;20374;49.474;10.944;2023-10-19T02:49:31;9.82;;;8.93;;
34098;SDS011;20374;49.474;10.944;2023-10-19T02:51:57;11.25;;;8.88;;
34098;SDS011;20374;49.474;10.944;2023-10-19T02:54:28;13.45;;;9.05;;
34098;SDS011;20374;49.474;10.944;2023-10-19T02:56:58;8.75;;;7.50;;
34098;SDS011;20374;49.474;10.944;2023-10-19T02:59:25;12.10;;;8.90;;
34098;SDS011;20374;49.474;10.944;2023-10-19T03:01:57;10.13;;;9.07;;
34098;SDS011;20374;49.474;10.944;2023-10-19T03:04:36;9.30;;;8.43;;
34098;SDS011;20374;49.474;10.944;2023-10-19T03:07:03;12.88;;;9.20;;
34098;SDS011;20374;49.474;10.944;2023-10-19T03:09:30;9.75;;;8.75;;
34098;SDS011;20374;49.474;10.944;2023-10-19T03:12:01;9.87;;;7.73;;
34098;SDS011;20374;49.474;10.944;2023-10-19T03:14:30;8.20;;;7.18;;
34098;SDS011;20374;49.474;10.944;2023-10-19T03:16:57;10.50;;;9.40;;
34098;SDS011;20374;49.474;10.944;2023-10-19T03:19:24;13.00;;;10.00;;
34098;SDS011;20374;49.474;10.944;2023-10-19T03:21:52;9.18;;;8.07;;
34098;SDS011;20374;49.474;10.944;2023-10-19T03:24:20;10.47;;;8.13;;
34098;SDS011;20374;49.474;10.944;2023-10-19T03:27:03;18.17;;;8.52;;
34098;SDS011;20374;49.474;10.944;2023-10-19T03:29:51;11.32;;;10.30;;
34098;SDS011;20374;49.474;10.944;2023-10-19T03:32:22;11.60;;;8.05;;
34098;SDS011;20374;49.474;10.944;2023-10-19T03:34:54;11.60;;;8.73;;
34098;SDS011;20374;49.474;10.944;2023-10-19T03:37:30;9.80;;;8.80;;
34098;SDS011;20374;49.474;10.944;2023-10-19T03:39:56;11.18;;;8.55;;
34098;SDS011;20374;49.474;10.944;2023-10-19T03:42:24;11.73;;;8.50;;
34098;SDS011;20374;49.474;10.944;2023-10-19T03:44:52;9.50;;;7.88;;
34098;SDS011;20374;49.474;10.944;2023-10-19T03:47:22;9.70;;;8.00;;
34098;SDS011;20374;49.474;10.944;2023-10-19T03:50:02;9.17;;;8.27;;
34098;SDS011;20374;49.474;10.944;2023-10-19T03:52:40;9.88;;;8.82;;
34098;SDS011;20374;49.474;10.944;2023-10-19T03:55:07;9.50;;;8.52;;
34098;SDS011;20374;49.474;10.944;2023-10-19T03:57:37;9.80;;;8.18;;
34098;SDS011;20374;49.474;10.944;2023-10-19T04:00:11;12.07;;;9.45;;
34098;SDS011;20374;49.474;10.944;2023-10-19T04:02:44;17.97;;;9.33;;
34098;SDS011;20374;49.474;10.944;2023-10-19T04:05:12;11.35;;;8.68;;
34098;SDS011;20374;49.474;10.944;2023-10-19T04:07:45;9.10;;;8.20;;
34098;SDS011;20374;49.474;10.944;2023-10-19T04:10:11;11.50;;;9.27;;
34098;SDS011;20374;49.474;10.944;2023-10-19T04:12:55;10.52;;;9.45;;
34098;SDS011;20374;49.474;10.944;2023-10-19T04:15:21;16.83;;;9.87;;
34098;SDS011;20374;49.474;10.944;2023-10-19T04:17:47;14.30;;;10.05;;
34098;SDS011;20374;49.474;10.944;2023-10-19T04:20:15;9.95;;;8.75;;
34098;SDS011;20374;49.474;10.944;2023-10-19T04:22:46;9.77;;;8.30;;
34098;SDS011;20374;49.474;10.944;2023-10-19T04:25:18;11.98;;;10.73;;
34098;SDS011;20374;49.474;10.944;2023-10-19T04:27:46;13.73;;;8.40;;
34098;SDS011;20374;49.474;10.944;2023-10-19T04:30:14;9.10;;;8.20;;
34098;SDS011;20374;49.474;10.944;2023-10-19T04:32:44;10.88;;;9.98;;
34098;SDS011;20374;49.474;10.944;2023-10-19T04:35:12;11.98;;;9.75;;
34098;SDS011;20374;49.474;10.944;2023-10-19T04:37:40;10.82;;;9.57;;
34098;SDS011;20374;49.474;10.944;2023-10-19T04:40:11;10.97;;;9.70;;
34098;SDS011;20374;49.474;10.944;2023-10-19T04:42:37;11.38;;;8.65;;
34098;SDS011;20374;49.474;10.944;2023-10-19T04:45:04;11.23;;;9.75;;
34098;SDS011;20374;49.474;10.944;2023-10-19T04:47:31;12.32;;;9.70;;
34098;SDS011;20374;49.474;10.944;2023-10-19T04:50:04;10.25;;;9.25;;
34098;SDS011;20374;49.474;10.944;2023-10-19T04:52:31;12.73;;;9.07;;
34098;SDS011;20374;49.474;10.944;2023-10-19T04:54:58;12.00;;;9.82;;
34098;SDS011;20374;49.474;10.944;2023-10-19T04:57:24;10.18;;;8.68;;
34098;SDS011;20374;49.474;10.944;2023-10-19T04:59:53;14.57;;;10.23;;
34098;SDS011;20374;49.474;10.944;2023-10-19T05:02:20;10.82;;;8.77;;
34098;SDS011;20374;49.474;10.944;2023-10-19T05:04:46;12.00;;;8.57;;
34098;SDS011;20374;49.474;10.944;2023-10-19T05:07:14;10.25;;;9.25;;
34098;SDS011;20374;49.474;10.944;2023-10-19T05:09:42;11.57;;;10.10;;
34098;SDS011;20374;49.474;10.944;2023-10-19T05:12:09;10.85;;;8.57;;
34098;SDS011;20374;49.474;10.944;2023-10-19T05:14:36;9.75;;;8.73;;
34098;SDS011;20374;49.474;10.944;2023-10-19T05:17:03;11.30;;;9.60;;
34098;SDS011;20374;49.474;10.944;2023-10-19T05:19:33;10.75;;;9.63;;
34098;SDS011;20374;49.474;10.944;2023-10-19T05:22:00;11.25;;;10.25;;
34098;SDS011;20374;49.474;10.944;2023-10-19T05:24:28;9.55;;;8.65;;
34098;SDS011;20374;49.474;10.944;2023-10-19T05:26:55;11.18;;;10.07;;
34098;SDS011;20374;49.474;10.944;2023-10-19T05:29:22;10.33;;;9.23;;
34098;SDS011;20374;49.474;10.944;2023-10-19T05:31:51;15.05;;;10.65;;
34098;SDS011;20374;49.474;10.944;2023-10-19T05:34:23;11.80;;;9.52;;
34098;SDS011;20374;49.474;10.944;2023-10-19T05:36:52;11.38;;;10.05;;
34098;SDS011;20374;49.474;10.944;2023-10-19T05:39:19;11.00;;;9.93;;
34098;SDS011;20374;49.474;10.944;2023-10-19T05:41:53;9.33;;;8.47;;
34098;SDS011;20374;49.474;10.944;2023-10-19T05:44:20;12.75;;;10.20;;
34098;SDS011;20374;49.474;10.944;2023-10-19T05:46:46;12.48;;;10.98;;
34098;SDS011;20374;49.474;10.944;2023-10-19T05:49:12;13.15;;;10.40;;
34098;SDS011;20374;49.474;10.944;2023-10-19T05:51:42;13.25;;;9.63;;
34098;SDS011;20374;49.474;10.944;2023-10-19T05:54:10;10.83;;;9.77;;
34098;SDS011;20374;49.474;10.944;2023-10-19T05:56:37;10.90;;;9.18;;
34098;SDS011;20374;49.474;10.944;2023-10-19T05:59:03;11.38;;;9.38;;
34098;SDS011;20374;49.474;10.944;2023-10-19T06:01:32;10.68;;;9.00;;
34098;SDS011;20374;49.474;10.944;2023-10-19T06:03:58;9.20;;;8.07;;
34098;SDS011;20374;49.474;10.944;2023-10-19T06:06:24;10.63;;;9.03;;
34098;SDS011;20374;49.474;10.944;2023-10-19T06:08:51;12.45;;;11.23;;
34098;SDS011;20374;49.474;10.944;2023-10-19T06:11:19;14.20;;;12.80;;
34098;SDS011;20374;49.474;10.944;2023-10-19T06:13:45;15.13;;;9.70;;
34098;SDS011;20374;49.474;10.944;2023-10-19T06:16:11;11.52;;;8.85;;
34098;SDS011;20374;49.474;10.944;2023-10-19T06:18:38;10.87;;;9.77;;
34098;SDS011;20374;49.474;10.944;2023-10-19T06:21:04;10.40;;;8.68;;
34098;SDS011;20374;49.474;10.944;2023-10-19T06:23:30;12.55;;;10.77;;
34098;SDS011;20374;49.474;10.944;2023-10-19T06:25:59;14.02;;;9.02;;
34098;SDS011;20374;49.474;10.944;2023-10-19T06:28:29;14.75;;;10.65;;
34098;SDS011;20374;49.474;10.944;2023-10-19T06:30:59;10.77;;;9.70;;
34098;SDS011;20374;49.474;10.944;2023-10-19T06:33:25;10.35;;;9.30;;
34098;SDS011;20374;49.474;10.944;2023-10-19T06:35:51;11.07;;;9.45;;
34098;SDS011;20374;49.474;10.944;2023-10-19T06:38:17;10.20;;;9.35;;
34098;SDS011;20374;49.474;10.944;2023-10-19T06:40:43;12.13;;;10.03;;
34098;SDS011;20374;49.474;10.944;2023-10-19T06:43:09;10.55;;;8.43;;
34098;SDS011;20374;49.474;10.944;2023-10-19T06:45:36;10.40;;;9.32;;
34098;SDS011;20374;49.474;10.944;2023-10-19T06:48:02;10.70;;;9.32;;
34098;SDS011;20374;49.474;10.944;2023-10-19T06:50:29;15.73;;;9.50;;
34098;SDS011;20374;49.474;10.944;2023-10-19T06:52:56;11.45;;;9.63;;
34098;SDS011;20374;49.474;10.944;2023-10-19T06:55:22;12.57;;;11.27;;
34098;SDS011;20374;49.474;10.944;2023-10-19T06:57:49;10.80;;;9.70;;
34098;SDS011;20374;49.474;10.944;2023-10-19T07:00:21;10.73;;;9.73;;
34098;SDS011;20374;49.474;10.944;2023-10-19T07:02:52;9.00;;;8.15;;
34098;SDS011;20374;49.474;10.944;2023-10-19T07:05:20;11.50;;;9.63;;
34098;SDS011;20374;49.474;10.944;2023-10-19T07:07:49;9.20;;;8.15;;
34098;SDS011;20374;49.474;10.944;2023-10-19T07:10:17;11.07;;;9.95;;
34098;SDS011;20374;49.474;10.944;2023-10-19T07:12:44;11.83;;;9.17;;
34098;SDS011;20374;49.474;10.944;2023-10-19T07:15:12;13.65;;;9.60;;
34098;SDS011;20374;49.474;10.944;2023-10-19T07:17:44;12.98;;;9.95;;
34098;SDS011;20374;49.474;10.944;2023-10-19T07:20:12;11.23;;;9.30;;
34098;SDS011;20374;49.474;10.944;2023-10-19T07:23:01;11.63;;;9.02;;
34098;SDS011;20374;49.474;10.944;2023-10-19T07:25:44;19.30;;;10.43;;
34098;SDS011;20374;49.474;10.944;2023-10-19T07:28:14;9.43;;;8.48;;
34098;SDS011;20374;49.474;10.944;2023-10-19T07:30:41;10.45;;;9.00;;
34098;SDS011;20374;49.474;10.944;2023-10-19T07:33:09;11.40;;;9.55;;
34098;SDS011;20374;49.474;10.944;2023-10-19T07:35:35;13.32;;;9.82;;
34098;SDS011;20374;49.474;10.944;2023-10-19T07:38:07;13.40;;;10.60;;
34098;SDS011;20374;49.474;10.944;2023-10-19T07:40:34;10.75;;;9.63;;
34098;SDS011;20374;49.474;10.944;2023-10-19T07:43:00;10.38;;;9.27;;
34098;SDS011;20374;49.474;10.944;2023-10-19T07:45:29;11.48;;;9.45;;
34098;SDS011;20374;49.474;10.944;2023-10-19T07:47:57;10.85;;;9.75;;
34098;SDS011;20374;49.474;10.944;2023-10-19T07:50:31;10.97;;;9.93;;
34098;SDS011;20374;49.474;10.944;2023-10-19T07:53:00;11.18;;;10.20;;
34098;SDS011;20374;49.474;10.944;2023-10-19T07:55:27;10.88;;;9.80;;
34098;SDS011;20374;49.474;10.944;2023-10-19T07:57:54;13.93;;;11.05;;
34098;SDS011;20374;49.474;10.944;2023-10-19T08:00:20;11.82;;;10.48;;
34098;SDS011;20374;49.474;10.944;2023-10-19T08:02:48;12.20;;;10.53;;
34098;SDS011;20374;49.474;10.944;2023-10-19T08:05:16;11.32;;;9.48;;
34098;SDS011;20374;49.474;10.944;2023-10-19T08:07:46;11.07;;;9.98;;
34098;SDS011;20374;49.474;10.944;2023-10-19T08:10:14;12.20;;;11.05;;
34098;SDS011;20374;49.474;10.944;2023-10-19T08:12:42;12.23;;;11.02;;
34098;SDS011;20374;49.474;10.944;2023-10-19T08:15:12;10.97;;;9.83;;
34098;SDS011;20374;49.474;10.944;2023-10-19T08:17:41;10.50;;;8.18;;
34098;SDS011;20374;49.474;10.944;2023-10-19T08:20:10;11.32;;;9.80;;
34098;SDS011;20374;49.474;10.944;2023-10-19T08:22:50;10.88;;;9.38;;
34098;SDS011;20374;49.474;10.944;2023-10-19T08:25:17;11.98;;;9.30;;
34098;SDS011;20374;49.474;10.944;2023-10-19T08:27:44;12.53;;;11.27;;
34098;SDS011;20374;49.474;10.944;2023-10-19T08:30:12;10.77;;;9.23;;
34098;SDS011;20374;49.474;10.944;2023-10-19T08:32:39;14.90;;;8.77;;
34098;SDS011;20374;49.474;10.944;2023-10-19T08:35:07;12.23;;;10.18;;
34098;SDS011;20374;49.474;10.944;2023-10-19T08:37:37;13.45;;;10.30;;
34098;SDS011;20374;49.474;10.944;2023-10-19T08:40:07;10.30;;;9.27;;
34098;SDS011;20374;49.474;10.944;2023-10-19T08:42:43;10.88;;;9.30;;
34098;SDS011;20374;49.474;10.944;2023-10-19T08:45:13;11.85;;;10.18;;
34098;SDS011;20374;49.474;10.944;2023-10-19T08:47:54;9.93;;;8.90;;
34098;SDS011;20374;49.474;10.944;2023-10-19T08:50:21;11.65;;;10.10;;
34098;SDS011;20374;49.474;10.944;2023-10-19T08:52:55;12.63;;;10.30;;
34098;SDS011;20374;49.474;10.944;2023-10-19T08:55:23;13.75;;;8.70;;
34098;SDS011;20374;49.474;10.944;2023-10-19T08:57:50;11.90;;;9.10;;
34098;SDS011;20374;49.474;10.944;2023-10-19T09:00:17;10.90;;;9.75;;
34098;SDS011;20374;49.474;10.944;2023-10-19T09:02:46;11.70;;;9.50;;
34098;SDS011;20374;49.474;10.944;2023-10-19T09:05:13;12.93;;;11.17;;
34098;SDS011;20374;49.474;10.944;2023-10-19T09:07:50;13.25;;;11.15;;
34098;SDS011;20374;49.474;10.944;2023-10-19T09:10:20;11.43;;;10.10;;
34098;SDS011;20374;49.474;10.944;2023-10-19T09:13:00;14.57;;;11.45;;
34098;SDS011;20374;49.474;10.944;2023-10-19T09:15:33;11.30;;;8.43;;
34098;SDS011;20374;49.474;10.944;2023-10-19T09:18:15;10.63;;;9.60;;
34098;SDS011;20374;49.474;10.944;2023-10-19T09:20:59;11.20;;;8.68;;
34098;SDS011;20374;49.474;10.944;2023-10-19T09:23:32;12.40;;;11.10;;
34098;SDS011;20374;49.474;10.944;2023-10-19T09:26:00;12.43;;;10.88;;
34098;SDS011;20374;49.474;10.944;2023-10-19T09:28:28;9.80;;;8.82;;
34098;SDS011;20374;49.474;10.944;2023-10-19T09:30:55;14.53;;;10.07;;
34098;SDS011;20374;49.474;10.944;2023-10-19T09:33:21;11.65;;;10.32;;
34098;SDS011;20374;49.474;10.944;2023-10-19T09:35:50;12.65;;;9.13;;
34098;SDS011;20374;49.474;10.944;2023-10-19T09:38:22;12.80;;;10.95;;
34098;SDS011;20374;49.474;10.944;2023-10-19T09:40:49;12.27;;;11.13;;
34098;SDS011;20374;49.474;10.944;2023-10-19T09:43:37;11.07;;;9.97;;
34098;SDS011;20374;49.474;10.944;2023-10-19T09:46:07;11.63;;;9.02;;
34098;SDS011;20374;49.474;10.944;2023-10-19T09:48:37;10.05;;;8.48;;
34098;SDS011;20374;49.474;10.944;2023-10-19T09:51:07;11.75;;;9.80;;
34098;SDS011;20374;49.474;10.944;2023-10-19T09:53:34;11.07;;;8.82;;
34098;SDS011;20374;49.474;10.944;2023-10-19T09:56:03;10.17;;;8.87;;
34098;SDS011;20374;49.474;10.944;2023-10-19T09:58:44;10.13;;;8.70;;
34098;SDS011;20374;49.474;10.944;2023-10-19T10:01:11;11.23;;;8.98;;
34098;SDS011;20374;49.474;10.944;2023-10-19T10:04:11;10.13;;;9.15;;
34098;SDS011;20374;49.474;10.944;2023-10-19T10:09:17;10.05;;;8.65;;
34098;SDS011;20374;49.474;10.944;2023-10-19T10:11:53;12.20;;;9.18;;
34098;SDS011;20374;49.474;10.944;2023-10-19T10:14:22;9.20;;;8.25;;
34098;SDS011;20374;49.474;10.944;2023-10-19T10:16:59;10.48;;;8.95;;
34098;SDS011;20374;49.474;10.944;2023-10-19T10:19:28;11.03;;;9.83;;
34098;SDS011;20374;49.474;10.944;2023-10-19T10:22:03;10.70;;;8.98;;
34098;SDS011;20374;49.474;10.944;2023-10-19T10:24:43;10.23;;;8.88;;
34098;SDS011;20374;49.474;10.944;2023-10-19T10:27:09;11.07;;;9.98;;
34098;SDS011;20374;49.474;10.944;2023-10-19T10:29:57;10.30;;;9.23;;
34098;SDS011;20374;49.474;10.944;2023-10-19T10:38:08;10.63;;;9.40;;
34098;SDS011;20374;49.474;10.944;2023-10-19T10:43:13;11.38;;;8.80;;
34098;SDS011;20374;49.474;10.944;2023-10-19T10:45:40;10.63;;;9.60;;
34098;SDS011;20374;49.474;10.944;2023-10-19T10:48:13;10.70;;;9.63;;
34098;SDS011;20374;49.474;10.944;2023-10-19T10:50:40;12.00;;;9.68;;
34098;SDS011;20374;49.474;10.944;2023-10-19T10:53:13;13.38;;;8.25;;
34098;SDS011;20374;49.474;10.944;2023-10-19T10:55:42;8.88;;;8.07;;
34098;SDS011;20374;49.474;10.944;2023-10-19T10:58:08;9.87;;;8.87;;
34098;SDS011;20374;49.474;10.944;2023-10-19T11:00:41;10.85;;;8.10;;
34098;SDS011;20374;49.474;10.944;2023-10-19T11:03:07;10.48;;;9.38;;
34098;SDS011;20374;49.474;10.944;2023-10-19T11:05:37;9.85;;;8.85;;
34098;SDS011;20374;49.474;10.944;2023-10-19T11:08:07;10.00;;;7.90;;
34098;SDS011;20374;49.474;10.944;2023-10-19T11:10:41;10.07;;;9.07;;
34098;SDS011;20374;49.474;10.944;2023-10-19T11:13:10;8.93;;;8.02;;
34098;SDS011;20374;49.474;10.944;2023-10-19T11:15:39;8.43;;;7.63;;
34098;SDS011;20374;49.474;10.944;2023-10-19T11:18:38;10.20;;;9.13;;
34098;SDS011;20374;49.474;10.944;2023-10-19T11:21:09;7.75;;;6.95;;
34098;SDS011;20374;49.474;10.944;2023-10-19T11:26:10;9.35;;;7.15;;
34098;SDS011;20374;49.474;10.944;2023-10-19T11:28:37;8.30;;;7.55;;
34098;SDS011;20374;49.474;10.944;2023-10-19T11:31:21;8.80;;;8.00;;
34098;SDS011;20374;49.474;10.944;2023-10-19T11:33:48;9.15;;;8.15;;
34098;SDS011;20374;49.474;10.944;2023-10-19T11:36:18;14.10;;;13.03;;
34098;SDS011;20374;49.474;10.944;2023-10-19T11:38:46;8.65;;;7.75;;
34098;SDS011;20374;49.474;10.944;2023-10-19T11:41:13;9.32;;;8.43;;
34098;SDS011;20374;49.474;10.944;2023-10-19T11:43:41;8.88;;;8.07;;
34098;SDS011;20374;49.474;10.944;2023-10-19T11:46:11;7.72;;;6.80;;
34098;SDS011;20374;49.474;10.944;2023-10-19T11:48:37;9.23;;;8.33;;
34098;SDS011;20374;49.474;10.944;2023-10-19T11:51:05;8.40;;;7.60;;
34098;SDS011;20374;49.474;10.944;2023-10-19T11:53:35;9.43;;;8.52;;
34098;SDS011;20374;49.474;10.944;2023-10-19T11:56:09;8.82;;;7.90;;
34098;SDS011;20374;49.474;10.944;2023-10-19T11:58:38;10.00;;;8.25;;
34098;SDS011;20374;49.474;10.944;2023-10-19T12:01:06;8.67;;;7.83;;
34098;SDS011;20374;49.474;10.944;2023-10-19T12:03:34;8.52;;;7.70;;
34098;SDS011;20374;49.474;10.944;2023-10-19T12:06:05;9.07;;;8.18;;
34098;SDS011;20374;49.474;10.944;2023-10-19T12:08:32;8.70;;;7.90;;
34098;SDS011;20374;49.474;10.944;2023-10-19T12:10:59;9.02;;;8.23;;
34098;SDS011;20374;49.474;10.944;2023-10-19T12:13:43;9.07;;;8.17;;
34098;SDS011;20374;49.474;10.944;2023-10-19T12:16:10;8.80;;;8.00;;
34098;SDS011;20374;49.474;10.944;2023-10-19T12:18:45;9.18;;;8.38;;
34098;SDS011;20374;49.474;10.944;2023-10-19T12:21:13;9.15;;;7.88;;
34098;SDS011;20374;49.474;10.944;2023-10-19T12:23:42;8.75;;;7.95;;
34098;SDS011;20374;49.474;10.944;2023-10-19T12:26:10;10.13;;;7.87;;
34098;SDS011;20374;49.474;10.944;2023-10-19T12:28:40;8.63;;;7.82;;
34098;SDS011;20374;49.474;10.944;2023-10-19T12:31:08;9.35;;;7.22;;
34098;SDS011;20374;49.474;10.944;2023-10-19T12:33:37;8.82;;;7.82;;
34098;SDS011;20374;49.474;10.944;2023-10-19T12:36:04;7.63;;;6.82;;
34098;SDS011;20374;49.474;10.944;2023-10-19T12:38:56;8.53;;;7.83;;
34098;SDS011;20374;49.474;10.944;2023-10-19T12:41:23;7.75;;;7.05;;
34098;SDS011;20374;49.474;10.944;2023-10-19T12:43:55;7.78;;;6.97;;
34098;SDS011;20374;49.474;10.944;2023-10-19T12:46:33;8.43;;;7.20;;
34098;SDS011;20374;49.474;10.944;2023-10-19T12:49:03;7.68;;;6.97;;
34098;SDS011;20374;49.474;10.944;2023-10-19T12:51:33;7.93;;;7.23;;
34098;SDS011;20374;49.474;10.944;2023-10-19T12:54:00;10.13;;;8.40;;
34098;SDS011;20374;49.474;10.944;2023-10-19T12:56:28;10.82;;;8.60;;
34098;SDS011;20374;49.474;10.944;2023-10-19T12:58:57;7.90;;;7.20;;
34098;SDS011;20374;49.474;10.944;2023-10-19T13:01:23;7.80;;;7.07;;
34098;SDS011;20374;49.474;10.944;2023-10-19T13:03:49;8.33;;;7.23;;
34098;SDS011;20374;49.474;10.944;2023-10-19T13:06:16;8.90;;;7.75;;
34098;SDS011;20374;49.474;10.944;2023-10-19T13:08:42;8.90;;;8.07;;
34098;SDS011;20374;49.474;10.944;2023-10-19T13:11:09;7.85;;;7.05;;
34098;SDS011;20374;49.474;10.944;2023-10-19T13:13:39;7.43;;;6.73;;
34098;SDS011;20374;49.474;10.944;2023-10-19T13:16:05;7.22;;;6.53;;
34098;SDS011;20374;49.474;10.944;2023-10-19T13:18:31;11.35;;;7.65;;
34098;SDS011;20374;49.474;10.944;2023-10-19T13:21:00;8.27;;;7.35;;
34098;SDS011;20374;49.474;10.944;2023-10-19T13:23:30;8.20;;;7.40;;
34098;SDS011;20374;49.474;10.944;2023-10-19T13:25:58;9.67;;;7.93;;
34098;SDS011;20374;49.474;10.944;2023-10-19T13:28:43;7.63;;;6.93;;
34098;SDS011;20374;49.474;10.944;2023-10-19T13:31:10;8.43;;;7.63;;
34098;SDS011;20374;49.474;10.944;2023-10-19T13:33:36;8.93;;;7.30;;
34098;SDS011;20374;49.474;10.944;2023-10-19T13:36:02;11.00;;;7.60;;
34098;SDS011;20374;49.474;10.944;2023-10-19T13:38:30;8.68;;;7.88;;
34098;SDS011;20374;49.474;10.944;2023-10-19T13:40:56;8.70;;;7.82;;
34098;SDS011;20374;49.474;10.944;2023-10-19T13:43:22;8.13;;;7.32;;
34098;SDS011;20374;49.474;10.944;2023-10-19T13:45:48;8.77;;;7.67;;
34098;SDS011;20374;49.474;10.944;2023-10-19T13:48:14;9.00;;;7.78;;
34098;SDS011;20374;49.474;10.944;2023-10-19T13:50:44;8.23;;;7.43;;
34098;SDS011;20374;49.474;10.944;2023-10-19T13:53:13;8.45;;;7.57;;
34098;SDS011;20374;49.474;10.944;2023-10-19T13:55:43;8.05;;;7.10;;
34098;SDS011;20374;49.474;10.944;2023-10-19T13:58:10;11.27;;;7.47;;
34098;SDS011;20374;49.474;10.944;2023-10-19T14:00:37;8.85;;;7.90;;
34098;SDS011;20374;49.474;10.944;2023-10-19T14:03:08;8.45;;;7.47;;
34098;SDS011;20374;49.474;10.944;2023-10-19T14:05:36;9.00;;;7.18;;
34098;SDS011;20374;49.474;10.944;2023-10-19T14:08:06;8.15;;;7.45;;
34098;SDS011;20374;49.474;10.944;2023-10-19T14:10:33;9.03;;;8.13;;
34098;SDS011;20374;49.474;10.944;2023-10-19T14:12:59;8.65;;;7.75;;
34098;SDS011;20374;49.474;10.944;2023-10-19T14:15:25;9.23;;;8.20;;
34098;SDS011;20374;49.474;10.944;2023-10-19T14:17:55;8.15;;;7.35;;
34098;SDS011;20374;49.474;10.944;2023-10-19T14:20:25;8.60;;;7.70;;
34098;SDS011;20374;49.474;10.944;2023-10-19T14:22:54;8.70;;;7.90;;
34098;SDS011;20374;49.474;10.944;2023-10-19T14:25:20;10.13;;;9.13;;
34098;SDS011;20374;49.474;10.944;2023-10-19T14:27:49;9.70;;;8.80;;
34098;SDS011;20374;49.474;10.944;2023-10-19T14:30:17;7.75;;;6.70;;
34098;SDS011;20374;49.474;10.944;2023-10-19T14:32:47;10.37;;;8.77;;
34098;SDS011;20374;49.474;10.944;2023-10-19T14:35:15;9.30;;;8.30;;
34098;SDS011;20374;49.474;10.944;2023-10-19T14:37:44;9.23;;;8.32;;
34098;SDS011;20374;49.474;10.944;2023-10-19T14:40:14;8.23;;;7.35;;
34098;SDS011;20374;49.474;10.944;2023-10-19T14:42:51;8.93;;;7.45;;
34098;SDS011;20374;49.474;10.944;2023-10-19T14:45:24;10.43;;;7.97;;
34098;SDS011;20374;49.474;10.944;2023-10-19T14:47:56;9.60;;;7.85;;
34098;SDS011;20374;49.474;10.944;2023-10-19T14:50:23;7.72;;;6.90;;
34098;SDS011;20374;49.474;10.944;2023-10-19T14:52:51;9.77;;;8.90;;
34098;SDS011;20374;49.474;10.944;2023-10-19T14:55:18;8.85;;;8.05;;